Forks Township, Pennsylvania
Current Conditions -  °F | °C
As of 12:51 PM on Friday 28 Nov 2014 (Local Time) from KABE Reporting Station
Clear Clear  
Wind Chill: 21°   Ceiling: Unl
Heat Index: 32°   Visibility: 10mi
Dew Point: 12°   Wind: 17mph
Humidity: 44%   Direction: 300°WNW
Pressure: 30.21"   Gusts: 23mph
Location:  40.7421°N, 75.2249°W
Report Text: KABE 281751Z 30015G20KT 10SM CLR 00/M11 A3021 RMK AO2 SLP233 60000 T00001111 10006 21039 56006 $
Loading
Personal Weather Stations






























Interactive Weather Map New forecast layout! Learn more

10-Day Weather Forecast

Advertisements
Track Severe Weather on mobile